Lapis Arrow — C6VH5 — position and weather

sailwx.info

Track history (hours):
 
Tides and Currents Weather Stations Pressure Air Temp Water Temp Dewpoint Dewpoint Depression Visibility Wind Speed Wind Dir Waves Ship Positions

Lapis Arrow

Last reported at 2016-Dec-08 03:09 UTC. Time now 2016-Dec-08 11:58 UTC.
Position N 48°41' W 005°59'.

Length 176 m; draft 7.3 m.

Type: Cargo ship. MMSI: 308800800.

Date/timePositionNaut miles runAvg speedWind from/ knotsBaromVisibWave heightAir tempDewpointWater temp
2016-Dec-08 03:09N 48°41' W 005°59'1818.0
2016-Dec-08 02:08N 48°56' W 005°44'6217.1
2016-Dec-07 22:31N 49°34' W 004°28'1717.1
2016-Dec-07 21:32N 49°46' W 004°09'1717.8
2016-Dec-07 20:33N 49°57' W 003°50'1918.7
2016-Dec-07 19:33N 50°11' W 003°29'1514.7
2016-Dec-07 18:33N 50°25' W 003°25'1817.6
2016-Dec-07 17:33N 50°25' W 002°57'1919.4
2016-Dec-07 16:33N 50°25' W 002°27'2218.6
2016-Dec-07 15:23N 50°26' W 001°52'1717.8
2016-Dec-07 14:25N 50°28' W 001°26'1517.1
2016-Dec-07 13:33N 50°28' W 001°02'1717.0
2016-Dec-07 12:34N 50°30' W 000°36'1817.6
2016-Dec-07 11:33N 50°32' W 000°08'1818.5
2016-Dec-07 10:33N 50°35' E 000°20'2819.0
2016-Dec-07 09:03N 50°48' E 001°00'919.0
2016-Dec-07 08:33N 50°53' E 001°13'1818.1
2016-Dec-07 07:33N 51°06' E 001°34'1717.2
2016-Dec-07 06:33N 51°20' E 001°50'1414.4
2016-Dec-07 05:33N 51°22' E 002°13'1717.1
2016-Dec-07 04:33N 51°23' E 002°40'1514.6
2016-Dec-07 03:33N 51°24' E 003°03'1716.6
2016-Dec-07 02:33N 51°25' E 003°30'10 9.8
2016-Dec-07 01:34N 51°22' E 003°45'1111.0
2016-Dec-07 00:34N 51°23' E 004°02'1010.4
2016-Dec-06 23:33N 51°18' E 004°17'2 2.3
2016-Dec-06 22:33N 51°16' E 004°17'2 1.7
2016-Dec-06 21:33N 51°16' E 004°14'1 0.9
2016-Dec-06 20:26N 51°16' E 004°13'0 0.0
2016-Dec-06 18:33N 51°16' E 004°13'0 0.0
2016-Dec-06 17:29N 51°16' E 004°13'0 0.0
2016-Dec-06 16:27N 51°16' E 004°13'0 0.0
2016-Dec-06 15:31N 51°16' E 004°13'0 0.0
2016-Dec-06 14:28N 51°16' E 004°13'0 0.0
2016-Dec-06 13:25N 51°16' E 004°13'0 0.0
2016-Dec-06 12:27N 51°16' E 004°13'0 0.0
2016-Dec-06 11:32N 51°16' E 004°13'0 0.0
2016-Dec-06 10:33N 51°16' E 004°13'0 0.0
2016-Dec-06 09:31N 51°16' E 004°13'0 0.0
2016-Dec-06 08:27N 51°16' E 004°13'0 0.0
2016-Dec-06 07:31N 51°16' E 004°13'0 0.0
2016-Dec-06 06:20N 51°16' E 004°13'0 0.0
2016-Dec-06 05:30N 51°16' E 004°13'0 0.0
2016-Dec-06 04:28N 51°16' E 004°13'0 0.0
2016-Dec-06 03:29N 51°16' E 004°13'0 0.0
2016-Dec-06 02:33N 51°16' E 004°13'0 0.0
2016-Dec-06 01:30N 51°16' E 004°13'0 0.0
2016-Dec-06 00:26N 51°16' E 004°13'0 0.0
2016-Dec-05 23:29N 51°16' E 004°13'0 0.0
2016-Dec-05 22:28N 51°16' E 004°13'0 0.0
2016-Dec-05 21:32N 51°16' E 004°13'2 1.6
2016-Dec-05 20:33N 51°17' E 004°15'1 0.7
2016-Dec-05 19:33N 51°17' E 004°15'7 7.4
2016-Dec-05 18:33N 51°22' E 004°07'1211.7
2016-Dec-05 17:33N 51°21' E 003°48'1211.6
2016-Dec-05 16:34N 51°25' E 003°31'1918.6
2016-Dec-05 15:34N 51°24' E 003°01'1514.5
2016-Dec-05 14:33N 51°22' E 002°38'1111.2
2016-Dec-05 13:33N 51°19' E 002°20'1313.1
2016-Dec-05 12:33N 51°13' E 002°02'1313.3
2016-Dec-05 11:34N 51°06' E 001°44'1614.7
2016-Dec-05 10:29N 50°53' E 001°28'5714.5
2016-Dec-05 06:33N 50°21' E 000°14'1515.2
2016-Dec-05 05:33N 50°16' W 000°08'1515.3
2016-Dec-05 04:33N 50°10' W 000°30'1515.4
2016-Dec-05 03:33N 50°03' W 000°52'1615.8
2016-Dec-05 02:33N 49°57' W 001°14'1616.4
2016-Dec-05 01:33N 49°48' W 001°36'9 8.5
2016-Dec-05 00:33N 49°45' W 001°48'3616.0
2016-Dec-04 22:17N 49°51' W 002°44'1316.4
2016-Dec-04 21:31N 49°48' W 003°03'1816.3
2016-Dec-04 20:25N 49°44' W 003°30'1715.9
2016-Dec-04 19:21N 49°41' W 003°56'6815.8
2016-Dec-04 15:04N 49°32' W 005°39'1016.0
2016-Dec-04 14:26N 49°32' W 005°54'  
Track history (hours):
 
Tides and Currents Weather Stations Pressure Air Temp Water Temp Dewpoint Dewpoint Depression Visibility Wind Speed Wind Dir Waves Ship Positions

Lapis Arrow

Last reported at 2016-Dec-08 03:09 UTC. Time now 2016-Dec-08 11:58 UTC.
Position N 48°41' W 005°59'.

Length 176 m; draft 7.3 m.

Type: Cargo ship. MMSI: 308800800.

Date/timePositionNaut miles runAvg speedWind from/ knotsBaromVisibWave heightAir tempDewpointWater temp
2016-Dec-08 03:09N 48°41' W 005°59'1818.0
2016-Dec-08 02:08N 48°56' W 005°44'6217.1
2016-Dec-07 22:31N 49°34' W 004°28'1717.1
2016-Dec-07 21:32N 49°46' W 004°09'1717.8
2016-Dec-07 20:33N 49°57' W 003°50'1918.7
2016-Dec-07 19:33N 50°11' W 003°29'1514.7
2016-Dec-07 18:33N 50°25' W 003°25'1817.6
2016-Dec-07 17:33N 50°25' W 002°57'1919.4
2016-Dec-07 16:33N 50°25' W 002°27'2218.6
2016-Dec-07 15:23N 50°26' W 001°52'1717.8
2016-Dec-07 14:25N 50°28' W 001°26'1517.1
2016-Dec-07 13:33N 50°28' W 001°02'1717.0
2016-Dec-07 12:34N 50°30' W 000°36'1817.6
2016-Dec-07 11:33N 50°32' W 000°08'1818.5
2016-Dec-07 10:33N 50°35' E 000°20'2819.0
2016-Dec-07 09:03N 50°48' E 001°00'919.0
2016-Dec-07 08:33N 50°53' E 001°13'1818.1
2016-Dec-07 07:33N 51°06' E 001°34'1717.2
2016-Dec-07 06:33N 51°20' E 001°50'1414.4
2016-Dec-07 05:33N 51°22' E 002°13'1717.1
2016-Dec-07 04:33N 51°23' E 002°40'1514.6
2016-Dec-07 03:33N 51°24' E 003°03'1716.6
2016-Dec-07 02:33N 51°25' E 003°30'10 9.8
2016-Dec-07 01:34N 51°22' E 003°45'1111.0
2016-Dec-07 00:34N 51°23' E 004°02'1010.4
2016-Dec-06 23:33N 51°18' E 004°17'2 2.3
2016-Dec-06 22:33N 51°16' E 004°17'2 1.7
2016-Dec-06 21:33N 51°16' E 004°14'1 0.9
2016-Dec-06 20:26N 51°16' E 004°13'0 0.0
2016-Dec-06 18:33N 51°16' E 004°13'0 0.0
2016-Dec-06 17:29N 51°16' E 004°13'0 0.0
2016-Dec-06 16:27N 51°16' E 004°13'0 0.0
2016-Dec-06 15:31N 51°16' E 004°13'0 0.0
2016-Dec-06 14:28N 51°16' E 004°13'0 0.0
2016-Dec-06 13:25N 51°16' E 004°13'0 0.0
2016-Dec-06 12:27N 51°16' E 004°13'0 0.0
2016-Dec-06 11:32N 51°16' E 004°13'0 0.0
2016-Dec-06 10:33N 51°16' E 004°13'0 0.0
2016-Dec-06 09:31N 51°16' E 004°13'0 0.0
2016-Dec-06 08:27N 51°16' E 004°13'0 0.0
2016-Dec-06 07:31N 51°16' E 004°13'0 0.0
2016-Dec-06 06:20N 51°16' E 004°13'0 0.0
2016-Dec-06 05:30N 51°16' E 004°13'0 0.0
2016-Dec-06 04:28N 51°16' E 004°13'0 0.0
2016-Dec-06 03:29N 51°16' E 004°13'0 0.0
2016-Dec-06 02:33N 51°16' E 004°13'0 0.0
2016-Dec-06 01:30N 51°16' E 004°13'0 0.0
2016-Dec-06 00:26N 51°16' E 004°13'0 0.0
2016-Dec-05 23:29N 51°16' E 004°13'0 0.0
2016-Dec-05 22:28N 51°16' E 004°13'0 0.0
2016-Dec-05 21:32N 51°16' E 004°13'2 1.6
2016-Dec-05 20:33N 51°17' E 004°15'1 0.7
2016-Dec-05 19:33N 51°17' E 004°15'7 7.4
2016-Dec-05 18:33N 51°22' E 004°07'1211.7
2016-Dec-05 17:33N 51°21' E 003°48'1211.6
2016-Dec-05 16:34N 51°25' E 003°31'1918.6
2016-Dec-05 15:34N 51°24' E 003°01'1514.5
2016-Dec-05 14:33N 51°22' E 002°38'1111.2
2016-Dec-05 13:33N 51°19' E 002°20'1313.1
2016-Dec-05 12:33N 51°13' E 002°02'1313.3
2016-Dec-05 11:34N 51°06' E 001°44'1614.7
2016-Dec-05 10:29N 50°53' E 001°28'5714.5
2016-Dec-05 06:33N 50°21' E 000°14'1515.2
2016-Dec-05 05:33N 50°16' W 000°08'1515.3
2016-Dec-05 04:33N 50°10' W 000°30'1515.4
2016-Dec-05 03:33N 50°03' W 000°52'1615.8
2016-Dec-05 02:33N 49°57' W 001°14'1616.4
2016-Dec-05 01:33N 49°48' W 001°36'9 8.5
2016-Dec-05 00:33N 49°45' W 001°48'3616.0
2016-Dec-04 22:17N 49°51' W 002°44'1316.4
2016-Dec-04 21:31N 49°48' W 003°03'1816.3
2016-Dec-04 20:25N 49°44' W 003°30'1715.9
2016-Dec-04 19:21N 49°41' W 003°56'6815.8
2016-Dec-04 15:04N 49°32' W 005°39'1016.0
2016-Dec-04 14:26N 49°32' W 005°54'  

Dump ship's entire track history